Time;durP1;ratioP1;P1;durP2;ratioP2;P2;SDS_P1;SDS_P2;PMS_P1;PMS_P2;Temp;Humidity;BMP_temperature;BMP_pressure;BME280_temperature;BME280_humidity;BME280_pressure;Samples;Min_cycle;Max_cycle;Signal;HPM_P1;HPM_P2
2023/12/30 00:01:01;;;;;;;1999.90;999.90;;;;;;;0.86;85.56;96665.28;5072891;28;20091;-66
2023/12/30 00:03:31;;;;;;;1999.90;999.90;;;;;;;0.88;85.39;96663.59;5072961;28;20051;-64
2023/12/30 00:06:02;;;;;;;1999.90;999.90;;;;;;;0.95;85.14;96661.88;5072777;28;20048;-63
2023/12/30 00:08:30;;;;;;;1999.90;999.90;;;;;;;1.04;84.50;96659.31;5072570;28;20455;-63
2023/12/30 00:10:59;;;;;;;1999.90;999.90;;;;;;;1.05;83.89;96658.44;5072754;28;20045;-67
2023/12/30 00:13:27;;;;;;;1999.90;999.90;;;;;;;1.07;83.06;96653.31;5072791;28;20052;-65
2023/12/30 00:16:00;;;;;;;1999.90;999.90;;;;;;;1.07;82.87;96667.06;5072744;28;20049;-63
2023/12/30 00:18:28;;;;;;;1999.90;999.90;;;;;;;1.04;83.27;96663.59;5072677;28;20052;-65
2023/12/30 00:20:56;;;;;;;1999.90;999.90;;;;;;;1.04;83.55;96664.47;5072691;28;20045;-65
2023/12/30 00:23:23;;;;;;;1999.90;999.90;;;;;;;1.02;84.08;96661.03;5072483;28;20060;-66
2023/12/30 00:25:53;;;;;;;1999.90;999.90;;;;;;;0.94;84.40;96653.31;5072649;28;20090;-64
2023/12/30 00:28:21;;;;;;;1999.90;999.90;;;;;;;0.88;85.05;96654.13;5072604;28;20044;-66
2023/12/30 00:30:48;;;;;;;1999.90;999.90;;;;;;;0.84;85.93;96654.97;5072764;28;20060;-64
2023/12/30 00:33:17;;;;;;;1999.90;999.90;;;;;;;0.78;86.21;96651.53;5072520;28;20143;-67
2023/12/30 00:35:44;;;;;;;1999.90;999.90;;;;;;;0.81;85.67;96652.41;5072503;28;20052;-63
2023/12/30 00:38:11;;;;;;;1999.90;999.90;;;;;;;0.79;85.23;96655.81;5072404;28;20041;-66
2023/12/30 00:40:38;;;;;;;1999.90;999.90;;;;;;;0.85;85.54;96655.84;5072582;28;20051;-65
2023/12/30 00:43:06;;;;;;;1999.90;999.90;;;;;;;0.82;86.00;96654.13;5072845;28;20041;-67
2023/12/30 00:45:33;;;;;;;1999.90;999.90;;;;;;;0.79;85.60;96659.28;5072312;28;20044;-66
2023/12/30 00:48:00;;;;;;;1999.90;999.90;;;;;;;0.78;85.97;96652.38;5074352;28;20406;-68
2023/12/30 00:50:30;;;;;;;1999.90;999.90;;;;;;;0.86;86.08;96652.41;5076111;28;20079;-66
2023/12/30 00:52:56;;;;;;;1999.90;999.90;;;;;;;0.77;85.34;96652.38;5076135;28;20048;-66
2023/12/30 00:55:24;;;;;;;1999.90;999.90;;;;;;;0.70;85.15;96649.81;5076105;28;20518;-66
2023/12/30 00:57:51;;;;;;;1999.90;999.90;;;;;;;0.59;85.59;96654.91;5075774;28;20514;-65
2023/12/30 01:00:19;;;;;;;1999.90;999.90;;;;;;;0.52;86.31;96654.88;5075878;28;20053;-64
2023/12/30 01:02:46;;;;;;;1999.90;999.90;;;;;;;0.52;86.59;96658.31;5075987;28;20054;-68
2023/12/30 01:05:13;;;;;;;1999.90;999.90;;;;;;;0.55;86.64;96650.63;5076133;28;20071;-67
2023/12/30 01:07:41;;;;;;;1999.90;999.90;;;;;;;0.52;86.85;96653.19;5075715;28;20048;-67
2023/12/30 01:10:09;;;;;;;1999.90;999.90;;;;;;;0.52;86.83;96648.03;5075725;28;20084;-67
2023/12/30 01:12:36;;;;;;;1999.90;999.90;;;;;;;0.52;86.46;96647.16;5075642;28;20083;-63
2023/12/30 01:15:04;;;;;;;1999.90;999.90;;;;;;;0.58;86.45;96647.19;5075314;28;20055;-66
2023/12/30 01:17:33;;;;;;;1999.90;999.90;;;;;;;0.53;86.14;96643.72;5075653;28;20051;-67
2023/12/30 01:20:00;;;;;;;1999.90;999.90;;;;;;;0.50;85.62;96636.84;5075478;28;20055;-65
2023/12/30 01:22:29;;;;;;;1999.90;999.90;;;;;;;0.43;85.83;96642.84;5075483;28;20079;-64
2023/12/30 01:24:58;;;;;;;1999.90;999.90;;;;;;;0.41;87.39;96639.38;5075426;28;20049;-66
2023/12/30 01:27:26;;;;;;;1999.90;999.90;;;;;;;0.37;88.67;96636.78;5075327;28;20136;-64
2023/12/30 01:29:53;;;;;;;1999.90;999.90;;;;;;;0.43;88.85;96627.41;5075302;28;20052;-66
2023/12/30 01:32:20;;;;;;;1999.90;999.90;;;;;;;0.49;89.80;96628.25;5075205;28;20048;-64
2023/12/30 01:34:47;;;;;;;1999.90;999.90;;;;;;;0.56;88.78;96625.72;5075266;28;20478;-66
2023/12/30 01:37:14;;;;;;;1999.90;999.90;;;;;;;0.60;87.85;96624.88;5075397;28;20048;-65
2023/12/30 01:39:42;;;;;;;1999.90;999.90;;;;;;;0.64;87.39;96626.63;5075302;28;20132;-67
2023/12/30 01:42:10;;;;;;;1999.90;999.90;;;;;;;0.65;86.44;96622.28;5075361;28;20070;-65
2023/12/30 01:44:38;;;;;;;1999.90;999.90;;;;;;;0.54;86.35;96627.44;5075059;28;20398;-68
2023/12/30 01:47:06;;;;;;;1999.90;999.90;;;;;;;0.47;86.68;96624.84;5074936;28;20127;-65
2023/12/30 01:49:33;;;;;;;1999.90;999.90;;;;;;;0.45;87.92;96626.53;5074906;28;20131;-66
2023/12/30 01:52:00;;;;;;;1999.90;999.90;;;;;;;0.41;88.40;96624.81;5074887;28;20051;-64
2023/12/30 01:54:27;;;;;;;1999.90;999.90;;;;;;;0.37;88.79;96618.78;5074821;28;20114;-66
2023/12/30 01:56:55;;;;;;;1999.90;999.90;;;;;;;0.43;89.31;96619.66;5074830;28;20091;-67
2023/12/30 01:59:24;;;;;;;1999.90;999.90;;;;;;;0.46;88.98;96625.69;5073964;28;20044;-65
2023/12/30 02:01:51;;;;;;;1999.90;999.90;;;;;;;0.43;88.08;96622.25;5074704;28;20048;-64
2023/12/30 02:04:18;;;;;;;1999.90;999.90;;;;;;;0.42;87.81;96620.53;5074533;28;20505;-67
2023/12/30 02:06:45;;;;;;;1999.90;999.90;;;;;;;0.35;88.25;96623.06;5074624;28;20501;-66
2023/12/30 02:09:13;;;;;;;1999.90;999.90;;;;;;;0.31;89.03;96618.78;5074492;28;20045;-64
2023/12/30 02:11:43;;;;;;;1999.90;999.90;;;;;;;0.24;89.49;96617.03;5074470;28;20071;-65
2023/12/30 02:14:25;;;;;;;1999.90;999.90;;;;;;;0.31;89.56;96615.34;5074424;28;20088;-66
2023/12/30 02:16:52;;;;;;;1999.90;999.90;;;;;;;0.27;88.89;96616.19;5074345;28;20289;-66
2023/12/30 02:19:20;;;;;;;1999.90;999.90;;;;;;;0.24;88.79;96615.31;5074233;28;20053;-66
2023/12/30 02:21:47;;;;;;;1999.90;999.90;;;;;;;0.26;89.17;96615.31;5074281;28;20568;-65
2023/12/30 02:24:16;;;;;;;1999.90;999.90;;;;;;;0.23;89.39;96621.31;5074317;28;20398;-63
2023/12/30 02:26:43;;;;;;;1999.90;999.90;;;;;;;0.24;89.40;96614.47;5074270;28;20083;-66
2023/12/30 02:29:11;;;;;;;1999.90;999.90;;;;;;;0.22;89.10;96617.03;5073969;28;20068;-65
2023/12/30 02:31:45;;;;;;;1999.90;999.90;;;;;;;0.24;88.83;96611.91;5074065;28;20060;-64
2023/12/30 02:34:13;;;;;;;1999.90;999.90;;;;;;;0.14;88.81;96610.09;5073977;28;20548;-63
2023/12/30 02:36:40;;;;;;;1999.90;999.90;;;;;;;0.16;89.44;96605.84;5073952;28;20051;-66
2023/12/30 02:39:07;;;;;;;1999.90;999.90;;;;;;;0.14;89.53;96613.56;5074003;28;20048;-68
2023/12/30 02:41:36;;;;;;;1999.90;999.90;;;;;;;0.19;90.37;96609.31;5073931;28;20045;-64
2023/12/30 02:44:04;;;;;;;1999.90;999.90;;;;;;;0.23;90.22;96607.56;5074062;28;20045;-67
2023/12/30 02:46:31;;;;;;;1999.90;999.90;;;;;;;0.30;89.35;96613.63;5073815;28;20581;-66
2023/12/30 02:49:02;;;;;;;1999.90;999.90;;;;;;;0.24;89.01;96614.47;5073661;28;20052;-66
2023/12/30 02:51:29;;;;;;;1999.90;999.90;;;;;;;0.17;88.65;96618.72;5073619;28;20091;-65
2023/12/30 02:53:56;;;;;;;1999.90;999.90;;;;;;;0.24;88.02;96619.63;5073561;28;20383;-64
2023/12/30 02:56:25;;;;;;;1999.90;999.90;;;;;;;0.09;87.54;96613.53;5073717;28;20045;-67
2023/12/30 02:58:55;;;;;;;1999.90;999.90;;;;;;;0.08;87.38;96605.78;5073933;28;20041;-66
2023/12/30 03:01:24;;;;;;;1999.90;999.90;;;;;;;0.13;87.14;96616.97;5073735;28;20125;-63
2023/12/30 03:03:53;;;;;;;1999.90;999.90;;;;;;;0.03;88.17;96618.63;5073627;28;20098;-62
2023/12/30 03:06:21;;;;;;;1999.90;999.90;;;;;;;0.05;88.97;96616.06;5073573;28;20052;-62
2023/12/30 03:08:48;;;;;;;1999.90;999.90;;;;;;;0.02;89.41;96610.91;5073447;28;20553;-67
2023/12/30 03:11:15;;;;;;;1999.90;999.90;;;;;;;0.06;88.81;96615.25;5073352;28;20056;-62
2023/12/30 03:13:42;;;;;;;1999.90;999.90;;;;;;;0.03;88.19;96608.34;5073299;28;20448;-66
2023/12/30 03:16:13;;;;;;;1999.90;999.90;;;;;;;0.02;89.69;96618.63;5073363;28;20056;-68
2023/12/30 03:18:40;;;;;;;1999.90;999.90;;;;;;;-0.03;89.97;96616.91;5073357;28;20800;-65
2023/12/30 03:21:08;;;;;;;1999.90;999.90;;;;;;;-0.04;90.34;96622.91;5073026;28;20052;-68
2023/12/30 03:23:36;;;;;;;1999.90;999.90;;;;;;;0.05;90.49;96622.09;5073196;28;20067;-66
2023/12/30 03:26:03;;;;;;;1999.90;999.90;;;;;;;0.14;89.63;96622.97;5073311;28;20052;-67
2023/12/30 03:28:31;;;;;;;1999.90;999.90;;;;;;;0.14;89.39;96625.53;5073163;28;20136;-66
2023/12/30 03:30:58;;;;;;;1999.90;999.90;;;;;;;0.18;89.68;96629.88;5073457;28;20044;-65
2023/12/30 03:33:27;;;;;;;1999.90;999.90;;;;;;;0.19;89.02;96623.88;5073091;28;20050;-67
2023/12/30 03:35:54;;;;;;;1999.90;999.90;;;;;;;0.17;88.25;96618.72;5073275;28;20536;-65
2023/12/30 03:38:22;;;;;;;1999.90;999.90;;;;;;;0.11;87.84;96626.41;5073332;28;20061;-64
2023/12/30 03:40:49;;;;;;;1999.90;999.90;;;;;;;0.11;87.86;96624.69;5073082;28;20084;-64
2023/12/30 03:43:17;;;;;;;1999.90;999.90;;;;;;;0.17;88.42;96630.72;5072990;28;20048;-66
2023/12/30 03:45:44;;;;;;;1999.90;999.90;;;;;;;0.21;88.32;96645.34;5073073;28;20048;-66
2023/12/30 03:48:11;;;;;;;1999.90;999.90;;;;;;;0.20;87.78;96644.47;5072902;28;20072;-64
2023/12/30 03:50:40;;;;;;;1999.90;999.90;;;;;;;0.21;87.54;96642.75;5072993;28;20048;-68
2023/12/30 03:53:07;;;;;;;1999.90;999.90;;;;;;;0.13;87.12;96637.56;5072943;28;20406;-65
2023/12/30 03:55:34;;;;;;;1999.90;999.90;;;;;;;0.15;87.29;96645.28;5072913;28;20059;-66
2023/12/30 03:58:02;;;;;;;1999.90;999.90;;;;;;;0.05;87.93;96637.53;5072858;28;20093;-67
2023/12/30 04:00:29;;;;;;;1999.90;999.90;;;;;;;0.08;88.70;96647.84;5073131;28;20059;-65
2023/12/30 04:02:56;;;;;;;1999.90;999.90;;;;;;;0.08;88.73;96640.13;5073233;28;20079;-68
2023/12/30 04:05:24;;;;;;;1999.90;999.90;;;;;;;0.14;88.92;96647.00;5072840;28;20051;-65
2023/12/30 04:07:52;;;;;;;1999.90;999.90;;;;;;;0.17;88.02;96641.00;5072703;28;20044;-64
2023/12/30 04:10:19;;;;;;;1999.90;999.90;;;;;;;0.15;87.38;96641.00;5072861;28;20079;-65
2023/12/30 04:12:46;;;;;;;1999.90;999.90;;;;;;;0.10;87.29;96645.28;5072855;28;20102;-64
2023/12/30 04:15:13;;;;;;;1999.90;999.90;;;;;;;0.06;87.00;96648.69;5072757;28;20044;-68
2023/12/30 04:17:40;;;;;;;1999.90;999.90;;;;;;;-0.01;87.83;96650.34;5072661;28;20048;-68
2023/12/30 04:20:08;;;;;;;1999.90;999.90;;;;;;;-0.09;89.37;96645.16;5072589;28;20128;-67
2023/12/30 04:22:35;;;;;;;1999.90;999.90;;;;;;;0.02;89.43;96650.38;5074282;28;20048;-66
2023/12/30 04:25:05;;;;;;;1999.90;999.90;;;;;;;0.00;88.93;96652.09;5076600;28;20128;-66
2023/12/30 04:27:32;;;;;;;1999.90;999.90;;;;;;;-0.01;88.87;96651.22;5076920;28;20066;-66
2023/12/30 04:29:59;;;;;;;1999.90;999.90;;;;;;;0.04;88.14;96656.41;5076438;28;20045;-65
2023/12/30 04:32:27;;;;;;;1999.90;999.90;;;;;;;-0.01;88.46;96651.22;5076388;28;20050;-67
2023/12/30 04:34:54;;;;;;;1999.90;999.90;;;;;;;-0.02;88.90;96656.34;5076328;28;20063;-66
2023/12/30 04:37:21;;;;;;;1999.90;999.90;;;;;;;0.03;89.14;96657.22;5076315;28;20045;-65
2023/12/30 04:39:48;;;;;;;1999.90;999.90;;;;;;;-0.06;89.08;96658.03;5076129;28;20473;-65
2023/12/30 04:42:17;;;;;;;1999.90;999.90;;;;;;;-0.05;89.44;96666.63;5076195;28;20127;-67
2023/12/30 04:44:44;;;;;;;1999.90;999.90;;;;;;;-0.03;88.46;96667.50;5076243;28;20048;-66
2023/12/30 04:47:10;;;;;;;1999.90;999.90;;;;;;;-0.16;88.44;96664.84;5076101;28;20052;-62
2023/12/30 04:49:38;;;;;;;1999.90;999.90;;;;;;;-0.28;89.22;96668.19;5076039;28;20134;-65
2023/12/30 04:52:05;;;;;;;1999.90;999.90;;;;;;;-0.32;89.84;96670.72;5076075;28;20491;-68
2023/12/30 04:54:32;;;;;;;1999.90;999.90;;;;;;;-0.31;90.04;96675.88;5076344;28;20139;-65
2023/12/30 04:56:59;;;;;;;1999.90;999.90;;;;;;;-0.36;89.92;96672.41;5075955;28;20052;-67
2023/12/30 04:59:28;;;;;;;1999.90;999.90;;;;;;;-0.37;90.04;96675.00;5075818;28;20053;-65
2023/12/30 05:01:55;;;;;;;1999.90;999.90;;;;;;;-0.32;90.07;96681.00;5075915;28;20052;-63
2023/12/30 05:04:23;;;;;;;1999.90;999.90;;;;;;;-0.29;89.53;96684.47;5075721;28;20048;-64
2023/12/30 05:06:51;;;;;;;1999.90;999.90;;;;;;;-0.30;89.54;96682.72;5075712;28;20487;-66
2023/12/30 05:09:20;;;;;;;1999.90;999.90;;;;;;;-0.29;90.01;96676.75;5075820;28;20052;-68
2023/12/30 05:11:49;;;;;;;1999.90;999.90;;;;;;;-0.28;91.36;96686.19;5075805;28;20059;-67
2023/12/30 05:14:19;;;;;;;1999.90;999.90;;;;;;;-0.23;91.17;96688.78;5075919;28;20045;-64
2023/12/30 05:16:48;;;;;;;;;;;;;;;-0.27;91.38;96681.91;5076087;28;20044;-66
2023/12/30 05:19:19;;;;;;;1999.90;999.90;;;;;;;-0.35;91.82;96680.97;5075674;28;19921;-66
2023/12/30 05:21:51;;;;;;;1999.90;999.90;;;;;;;-0.33;91.67;96690.41;5075605;28;20091;-63
2023/12/30 05:24:20;;;;;;;1999.90;999.90;;;;;;;-0.34;91.72;96682.69;5075521;28;20056;-65
2023/12/30 05:26:52;;;;;;;1999.90;999.90;;;;;;;-0.30;91.67;96682.72;5075411;28;20122;-64
2023/12/30 05:29:20;;;;;;;1999.90;999.90;;;;;;;-0.33;91.32;96685.28;5075314;28;20414;-67
2023/12/30 05:31:51;;;;;;;1999.90;999.90;;;;;;;-0.36;91.17;96682.69;5075392;28;20044;-67
2023/12/30 05:34:19;;;;;;;1999.90;999.90;;;;;;;-0.30;91.07;96693.03;5074125;28;20041;-66
2023/12/30 05:36:47;;;;;;;1999.90;999.90;;;;;;;-0.30;90.77;96693.03;5075199;28;20086;-65
2023/12/30 05:39:15;;;;;;;1999.90;999.90;;;;;;;-0.25;90.71;96687.91;5075235;28;20470;-65
2023/12/30 05:41:42;;;;;;;1999.90;999.90;;;;;;;-0.24;90.26;96684.47;5075036;28;20044;-67
2023/12/30 05:44:10;;;;;;;1999.90;999.90;;;;;;;-0.29;90.45;96683.59;5075103;28;20087;-67
2023/12/30 05:46:37;;;;;;;1999.90;999.90;;;;;;;-0.27;90.78;96685.34;5075108;28;20045;-67
2023/12/30 05:49:07;;;;;;;1999.90;999.90;;;;;;;-0.20;91.34;96685.38;5075020;28;20048;-66
2023/12/30 05:51:35;;;;;;;1999.90;999.90;;;;;;;-0.23;91.47;96683.66;5074903;28;20127;-63
2023/12/30 05:54:02;;;;;;;1999.90;999.90;;;;;;;-0.23;91.85;96681.09;5074887;28;20139;-68
2023/12/30 05:56:29;;;;;;;1999.90;999.90;;;;;;;-0.16;92.38;96676.81;5074793;28;20129;-67
2023/12/30 05:58:57;;;;;;;1999.90;999.90;;;;;;;-0.09;92.10;96688.03;5074763;28;20457;-68
2023/12/30 06:01:24;;;;;;;1999.90;999.90;;;;;;;-0.01;92.41;96688.94;5074780;28;20430;-65
2023/12/30 06:03:51;;;;;;;1999.90;999.90;;;;;;;0.09;91.94;96684.72;5074674;28;20079;-67
2023/12/30 06:06:20;;;;;;;1999.90;999.90;;;;;;;0.17;90.86;96693.34;5074806;28;20049;-66
2023/12/30 06:08:51;;;;;;;1999.90;999.90;;;;;;;0.19;90.32;96691.63;5074468;28;20049;-65
2023/12/30 06:11:22;;;;;;;1999.90;999.90;;;;;;;0.24;91.07;96686.53;5074480;28;20076;-64
2023/12/30 06:13:50;;;;;;;1999.90;999.90;;;;;;;0.35;91.43;96687.44;5074315;28;20075;-66
2023/12/30 06:16:18;;;;;;;1999.90;999.90;;;;;;;0.50;91.71;96689.22;5074297;28;20139;-66
2023/12/30 06:18:45;;;;;;;1999.90;999.90;;;;;;;0.61;91.19;96678.94;5074415;28;20131;-65
2023/12/30 06:21:13;;;;;;;1999.90;999.90;;;;;;;0.66;90.32;96673.81;5074423;28;20098;-65
2023/12/30 06:23:42;;;;;;;1999.90;999.90;;;;;;;0.74;89.95;96682.44;5074693;28;20044;-68
2023/12/30 06:26:09;;;;;;;1999.90;999.90;;;;;;;0.88;90.14;96682.47;5074380;28;20414;-65
2023/12/30 06:28:37;;;;;;;1999.90;999.90;;;;;;;1.53;91.14;96683.41;5074126;28;20051;-66
2023/12/30 06:31:06;;;;;;;1999.90;999.90;;;;;;;3.06;88.80;96688.16;5074094;28;20053;-65
2023/12/30 06:33:34;;;;;;;1999.90;999.90;;;;;;;4.87;80.55;96686.53;5074326;28;20044;-67
2023/12/30 06:36:01;;;;;;;1999.90;999.90;;;;;;;6.58;69.87;96697.69;5074115;28;20509;-69
2023/12/30 06:38:29;;;;;;;1999.90;999.90;;;;;;;8.20;64.45;96716.66;5073949;28;20510;-65
2023/12/30 06:40:59;;;;;;;1999.90;999.90;;;;;;;9.71;59.33;96727.22;5073956;28;20052;-66
2023/12/30 06:43:27;;;;;;;1999.90;999.90;;;;;;;11.02;53.28;96707.16;5074006;28;20124;-62
2023/12/30 06:45:55;;;;;;;1999.90;999.90;;;;;;;12.19;48.92;96714.88;5073727;28;20053;-64
2023/12/30 06:48:23;;;;;;;1999.90;999.90;;;;;;;13.29;45.59;96708.38;5073658;28;20125;-63
2023/12/30 06:50:54;;;;;;;1999.90;999.90;;;;;;;14.03;42.48;96714.56;5073758;28;20143;-68
2023/12/30 06:53:22;;;;;;;1999.90;999.90;;;;;;;14.81;41.16;96721.19;5073714;28;20045;-65
2023/12/30 06:55:51;;;;;;;1999.90;999.90;;;;;;;15.60;39.30;96715.28;5073644;28;20055;-66
2023/12/30 06:58:23;;;;;;;1999.90;999.90;;;;;;;16.28;38.01;96729.09;5073904;28;20406;-67
2023/12/30 07:00:52;;;;;;;1999.90;999.90;;;;;;;16.92;37.34;96720.06;5073534;28;20052;-68
2023/12/30 07:03:22;;;;;;;1999.90;999.90;;;;;;;17.64;35.83;96719.16;5073727;28;20384;-65
2023/12/30 07:05:51;;;;;;;1999.90;999.90;;;;;;;18.16;35.15;96721.22;5073684;28;20041;-65
2023/12/30 07:08:22;;;;;;;1999.90;999.90;;;;;;;18.63;34.18;96718.13;5073523;28;20131;-66
2023/12/30 07:10:51;;;;;;;1999.90;999.90;;;;;;;18.96;33.52;96724.69;5073399;28;20045;-62
2023/12/30 07:13:21;;;;;;;1999.90;999.90;;;;;;;19.27;33.58;96719.09;5073521;28;20044;-68
2023/12/30 07:15:52;;;;;;;1999.90;999.90;;;;;;;19.36;33.30;96723.75;5073430;28;20045;-63
2023/12/30 07:18:19;;;;;;;1999.90;999.90;;;;;;;19.44;32.85;96725.84;5073454;28;20055;-65
2023/12/30 07:20:50;;;;;;;1999.90;999.90;;;;;;;19.41;32.95;96726.06;5073157;28;20147;-62
2023/12/30 07:23:17;;;;;;;1999.90;999.90;;;;;;;19.55;33.28;96728.59;5073009;28;20044;-65
2023/12/30 07:25:47;;;;;;;1999.90;999.90;;;;;;;19.50;33.42;96729.88;5073247;28;20102;-65
2023/12/30 07:28:16;;;;;;;1999.90;999.90;;;;;;;19.16;33.64;96726.00;5073201;28;20044;-66
2023/12/30 07:30:46;;;;;;;1999.90;999.90;;;;;;;18.40;34.67;96736.41;5073112;28;20060;-65
2023/12/30 07:33:14;;;;;;;1999.90;999.90;;;;;;;17.36;35.91;96728.84;5073403;28;20463;-66
2023/12/30 07:35:52;;;;;;;1999.90;999.90;;;;;;;16.37;37.32;96741.75;5073108;28;20054;-65
2023/12/30 07:38:21;;;;;;;1999.90;999.90;;;;;;;15.55;39.05;96736.63;5073161;28;20044;-66
2023/12/30 07:40:48;;;;;;;1999.90;999.90;;;;;;;14.80;40.88;96744.97;5073114;28;20050;-65
2023/12/30 07:43:17;;;;;;;1999.90;999.90;;;;;;;14.23;42.26;96737.25;5073049;28;20102;-65
2023/12/30 07:45:47;;;;;;;1999.90;999.90;;;;;;;13.69;43.34;96737.25;5073014;28;20075;-64
2023/12/30 07:48:14;;;;;;;1999.90;999.90;;;;;;;13.47;43.73;96740.81;5073300;28;20052;-64
2023/12/30 07:50:42;;;;;;;1999.90;999.90;;;;;;;13.21;44.48;96737.63;5072925;28;20044;-65
2023/12/30 07:53:09;;;;;;;1999.90;999.90;;;;;;;12.97;45.33;96741.28;5072985;28;20044;-66
2023/12/30 07:55:36;;;;;;;1999.90;999.90;;;;;;;12.98;45.67;96739.53;5072840;28;20041;-68
2023/12/30 07:58:04;;;;;;;1999.90;999.90;;;;;;;12.94;46.84;96736.16;5075601;28;20127;-64
2023/12/30 08:00:33;;;;;;;1999.90;999.90;;;;;;;13.02;47.60;96738.47;5076895;28;20074;-64
2023/12/30 08:03:02;;;;;;;1999.90;999.90;;;;;;;13.33;48.03;96739.69;5077006;28;20041;-68
2023/12/30 08:05:32;;;;;;;1999.90;999.90;;;;;;;13.90;47.05;96735.34;5076976;28;20048;-64
2023/12/30 08:08:02;;;;;;;1999.90;999.90;;;;;;;14.64;44.54;96745.75;5076895;28;20049;-65
2023/12/30 08:10:32;;;;;;;1999.90;999.90;;;;;;;15.37;41.68;96736.72;5076773;28;20135;-66
2023/12/30 08:13:01;;;;;;;1999.90;999.90;;;;;;;15.79;39.76;96747.63;5076724;28;20387;-67
2023/12/30 08:15:31;;;;;;;1999.90;999.90;;;;;;;16.00;39.04;96755.28;5076769;28;20499;-67
2023/12/30 08:18:02;;;;;;;1999.90;999.90;;;;;;;16.01;39.97;96756.13;5076685;28;20045;-65
2023/12/30 08:20:30;;;;;;;;;;;;;;;16.04;39.44;96761.22;5076785;28;20048;-70
2023/12/30 08:22:58;;;;;;;1999.90;999.90;;;;;;;15.82;39.36;96765.03;5076593;28;19971;-68
2023/12/30 08:25:26;;;;;;;1999.90;999.90;;;;;;;15.68;39.97;96762.34;5076832;28;20483;-69
2023/12/30 08:27:54;;;;;;;1999.90;999.90;;;;;;;15.57;40.05;96765.56;5076560;28;20571;-69
2023/12/30 08:30:21;;;;;;;1999.90;999.90;;;;;;;15.35;41.42;96761.47;5076521;28;20052;-68
2023/12/30 08:32:49;;;;;;;1999.90;999.90;;;;;;;15.09;41.89;96756.66;5076359;28;20460;-66
2023/12/30 08:35:17;;;;;;;1999.90;999.90;;;;;;;14.96;42.01;96766.97;5076266;28;20102;-67
2023/12/30 08:37:45;;;;;;;1999.90;999.90;;;;;;;14.74;42.09;96759.28;5076563;28;20044;-65
2023/12/30 08:40:14;;;;;;;1999.90;999.90;;;;;;;14.50;42.96;96754.34;5076511;28;20048;-66
2023/12/30 08:42:44;;;;;;;1999.90;999.90;;;;;;;14.46;42.58;96766.81;5076162;28;20047;-68
2023/12/30 08:45:18;;;;;;;1999.90;999.90;;;;;;;14.11;43.47;96761.50;5076162;28;20048;-67
2023/12/30 08:47:46;;;;;;;1999.90;999.90;;;;;;;13.88;44.73;96758.25;5076148;28;20331;-66
2023/12/30 08:50:14;;;;;;;1999.90;999.90;;;;;;;13.72;45.66;96758.97;5076069;28;20135;-66
2023/12/30 08:52:42;;;;;;;1999.90;999.90;;;;;;;13.55;46.95;96759.75;5076058;28;20052;-67
2023/12/30 08:55:15;;;;;;;1999.90;999.90;;;;;;;13.76;46.57;96755.25;5075842;28;20080;-63
2023/12/30 08:57:46;;;;;;;1999.90;999.90;;;;;;;13.71;44.96;96749.38;5076048;28;20083;-69
2023/12/30 09:00:15;;;;;;;;;;;;;;;14.00;43.25;96747.09;5076574;28;20234;-65
2023/12/30 09:02:46;;;;;;;1999.90;999.90;;;;;;;14.38;41.94;96751.41;5075782;28;19999;-67
2023/12/30 09:05:22;;;;;;;1999.90;999.90;;;;;;;14.94;40.70;96741.63;5075722;28;20048;-64
2023/12/30 09:07:51;;;;;;;1999.90;999.90;;;;;;;15.20;40.89;96737.63;5075477;28;20058;-63
2023/12/30 09:10:22;;;;;;;1999.90;999.90;;;;;;;14.73;42.40;96736.53;5075708;28;20048;-68
2023/12/30 09:12:58;;;;;;;1999.90;999.90;;;;;;;14.44;43.09;96734.47;5075748;28;20445;-66
2023/12/30 09:15:33;;;;;;;1999.90;999.90;;;;;;;14.15;43.44;96726.25;5075708;28;20049;-65
2023/12/30 09:18:02;;;;;;;1999.90;999.90;;;;;;;14.03;43.56;96719.81;5076001;28;20098;-64
2023/12/30 09:20:30;;;;;;;1999.90;999.90;;;;;;;14.01;43.35;96726.94;5075439;28;20049;-68
2023/12/30 09:22:59;;;;;;;1999.90;999.90;;;;;;;13.98;43.05;96720.06;5075521;28;20052;-65
2023/12/30 09:25:28;;;;;;;1999.90;999.90;;;;;;;14.00;42.69;96717.34;5075456;28;20171;-66
2023/12/30 09:27:59;;;;;;;1999.90;999.90;;;;;;;13.99;42.51;96713.84;5075474;28;20057;-65
2023/12/30 09:30:28;;;;;;;1999.90;999.90;;;;;;;14.00;43.01;96712.09;5075190;28;20448;-65
2023/12/30 09:32:55;;;;;;;1999.90;999.90;;;;;;;13.84;43.62;96712.81;5075635;28;20487;-64
2023/12/30 09:35:23;;;;;;;1999.90;999.90;;;;;;;13.53;44.20;96701.16;5075277;28;20119;-68
2023/12/30 09:37:52;;;;;;;1999.90;999.90;;;;;;;13.42;44.31;96698.16;5075292;28;20098;-62
2023/12/30 09:40:20;;;;;;;1999.90;999.90;;;;;;;13.24;45.12;96695.44;5075418;28;20044;-64
2023/12/30 09:42:52;;;;;;;1999.90;999.90;;;;;;;12.95;46.17;96690.63;5075178;28;20052;-67
2023/12/30 09:45:20;;;;;;;1999.90;999.90;;;;;;;12.99;46.45;96686.06;5075063;28;20040;-67
2023/12/30 09:47:50;;;;;;;1999.90;999.90;;;;;;;13.17;45.86;96694.03;5074857;28;20040;-68
2023/12/30 09:50:18;;;;;;;1999.90;999.90;;;;;;;13.08;46.06;96690.06;5074966;28;20059;-68
2023/12/30 09:52:46;;;;;;;1999.90;999.90;;;;;;;13.11;45.18;96689.91;5075057;28;20053;-67
2023/12/30 09:55:14;;;;;;;1999.90;999.90;;;;;;;12.99;44.96;96681.69;5074986;28;20072;-65
2023/12/30 09:57:46;;;;;;;1999.90;999.90;;;;;;;13.09;45.09;96686.50;5074890;28;20052;-65
2023/12/30 10:00:18;;;;;;;1999.90;999.90;;;;;;;13.01;45.85;96689.50;5074770;28;20052;-62
2023/12/30 10:02:48;;;;;;;1999.90;999.90;;;;;;;13.00;45.97;96685.16;5074875;28;20105;-66
2023/12/30 10:05:20;;;;;;;1999.90;999.90;;;;;;;13.02;45.66;96684.19;5074606;28;20162;-63
2023/12/30 10:07:48;;;;;;;1999.90;999.90;;;;;;;12.99;46.31;96691.34;5074554;28;20051;-64
2023/12/30 10:10:32;;;;;;;1999.90;999.90;;;;;;;13.16;45.70;96684.47;5074449;28;20418;-65
2023/12/30 10:13:00;;;;;;;1999.90;999.90;;;;;;;13.19;45.42;96679.94;5074542;28;20044;-68
2023/12/30 10:15:31;;;;;;;1999.90;999.90;;;;;;;13.38;45.04;96684.31;5074511;28;20076;-65
2023/12/30 10:17:59;;;;;;;1999.90;999.90;;;;;;;13.43;45.28;96673.59;5074404;28;20487;-64
2023/12/30 10:20:27;;;;;;;1999.90;999.90;;;;;;;13.36;45.45;96680.88;5073431;28;20414;-68
2023/12/30 10:22:55;;;;;;;1999.90;999.90;;;;;;;13.31;45.70;96677.63;5074410;28;20409;-66
2023/12/30 10:25:22;;;;;;;1999.90;999.90;;;;;;;13.41;44.97;96668.41;5074273;28;20052;-65
2023/12/30 10:27:51;;;;;;;1999.90;999.90;;;;;;;13.47;44.89;96664.63;5074338;28;20045;-64
2023/12/30 10:30:34;;;;;;;1999.90;999.90;;;;;;;13.53;45.62;96664.38;5074070;28;20060;-66
2023/12/30 10:33:10;;;;;;;1999.90;999.90;;;;;;;13.56;45.31;96666.00;5074117;28;20045;-64
2023/12/30 10:35:39;;;;;;;1999.90;999.90;;;;;;;13.59;45.32;96657.97;5074388;28;20048;-68
2023/12/30 10:38:08;;;;;;;1999.90;999.90;;;;;;;13.64;45.04;96654.19;5073971;28;20048;-65
2023/12/30 10:40:36;;;;;;;1999.90;999.90;;;;;;;13.61;45.59;96649.06;5073958;28;20051;-66
2023/12/30 10:43:04;;;;;;;1999.90;999.90;;;;;;;13.56;46.07;96640.56;5073987;28;20088;-66
2023/12/30 10:45:33;;;;;;;1999.90;999.90;;;;;;;13.61;45.59;96638.56;5073912;28;20049;-67
2023/12/30 10:48:01;;;;;;;1999.90;999.90;;;;;;;13.66;45.92;96640.97;5073831;28;20127;-67
2023/12/30 10:50:30;;;;;;;1999.90;999.90;;;;;;;13.59;46.74;96639.56;5073708;28;20135;-65
2023/12/30 10:53:02;;;;;;;1999.90;999.90;;;;;;;13.67;45.97;96644.44;5073783;28;20044;-65
2023/12/30 10:55:32;;;;;;;1999.90;999.90;;;;;;;13.51;45.66;96638.16;5073823;28;20133;-66
2023/12/30 10:58:03;;;;;;;1999.90;999.90;;;;;;;13.42;45.66;96627.22;5073647;28;20055;-69
2023/12/30 11:00:36;;;;;;;1999.90;999.90;;;;;;;13.36;45.71;96630.97;5073628;28;20052;-65
2023/12/30 11:03:05;;;;;;;1999.90;999.90;;;;;;;13.27;46.30;96624.38;5073653;28;20536;-65
2023/12/30 11:05:39;;;;;;;1999.90;999.90;;;;;;;13.27;46.17;96611.25;5073525;28;20049;-65